createdAt,value
2022-12-26T00:00:16.473Z,98322.19
2022-12-26T00:03:26.252Z,98326.00
2022-12-26T00:06:35.167Z,98333.16
2022-12-26T00:09:42.061Z,98326.38
2022-12-26T00:12:47.494Z,98319.47
2022-12-26T00:15:53.926Z,98315.06
2022-12-26T00:19:04.039Z,98329.00
2022-12-26T00:22:10.313Z,98318.78
2022-12-26T00:25:16.285Z,98309.47
2022-12-26T00:28:22.599Z,98304.50
2022-12-26T00:31:32.235Z,98299.25
2022-12-26T00:34:41.580Z,98303.53
2022-12-26T00:37:47.211Z,98329.41
2022-12-26T00:40:53.745Z,98327.16
2022-12-26T00:43:59.535Z,98314.69
2022-12-26T00:47:05.827Z,98320.47
2022-12-26T00:50:15.854Z,98313.91
2022-12-26T00:53:23.067Z,98309.19
2022-12-26T00:56:28.744Z,98315.69
2022-12-26T00:59:35.027Z,98327.38
2022-12-26T01:02:43.322Z,98317.56
2022-12-26T01:05:54.886Z,98313.69
2022-12-26T01:09:02.153Z,98323.84
2022-12-26T01:12:08.660Z,98307.06
2022-12-26T01:15:14.236Z,98298.91
2022-12-26T01:18:21.008Z,98299.72
2022-12-26T01:21:29.552Z,98294.31
2022-12-26T01:24:35.758Z,98296.16
2022-12-26T01:27:41.410Z,98300.53
2022-12-26T01:30:47.664Z,98304.00
2022-12-26T01:33:53.751Z,98301.25
2022-12-26T01:37:02.772Z,98322.16
2022-12-26T01:40:09.696Z,98312.25
2022-12-26T01:43:18.787Z,98299.81
2022-12-26T01:46:32.188Z,98286.50
2022-12-26T01:49:46.502Z,98281.91
2022-12-26T01:52:57.528Z,98280.44
2022-12-26T01:56:13.120Z,98281.56
2022-12-26T01:59:24.721Z,98272.28
2022-12-26T02:02:54.076Z,98269.88
2022-12-26T02:06:01.173Z,98263.19
2022-12-26T02:09:12.436Z,98244.44
2022-12-26T02:12:36.388Z,98233.44
2022-12-26T02:15:45.656Z,98227.88
2022-12-26T02:18:51.063Z,98216.19
2022-12-26T02:22:49.765Z,98219.31
2022-12-26T02:26:44.047Z,98242.19
2022-12-26T02:30:08.923Z,98247.16
2022-12-26T02:33:46.079Z,98245.19
2022-12-26T02:37:21.722Z,98235.22
2022-12-26T02:40:56.536Z,98233.22
2022-12-26T02:44:37.650Z,98238.25
2022-12-26T02:48:00.390Z,98222.34
2022-12-26T02:51:47.316Z,98229.09
2022-12-26T02:55:36.641Z,98231.72
2022-12-26T02:59:14.482Z,98233.34
2022-12-26T03:02:51.075Z,98226.44
2022-12-26T03:06:21.228Z,98217.81
2022-12-26T03:09:53.338Z,98217.13
2022-12-26T03:13:14.206Z,98209.44
2022-12-26T03:16:42.317Z,98208.53
2022-12-26T03:20:02.862Z,98190.31
2022-12-26T03:23:16.908Z,98146.59
2022-12-26T03:26:41.920Z,98167.66
2022-12-26T03:29:59.636Z,98172.28
2022-12-26T03:33:05.913Z,98180.16
2022-12-26T03:36:27.059Z,98194.91
2022-12-26T03:40:06.106Z,98179.16
2022-12-26T03:43:52.172Z,98172.28
2022-12-26T03:47:36.918Z,98167.03
2022-12-26T03:51:07.091Z,98161.97
2022-12-26T03:54:40.137Z,98171.31
2022-12-26T03:58:14.080Z,98169.50
2022-12-26T04:01:51.112Z,98154.03
2022-12-26T04:05:18.629Z,98163.81
2022-12-26T04:08:51.932Z,98163.81
2022-12-26T04:12:20.204Z,98152.22
2022-12-26T04:15:54.883Z,98156.44
2022-12-26T04:19:35.441Z,98151.22
2022-12-26T04:23:09.674Z,98140.22
2022-12-26T04:26:42.459Z,98133.50
2022-12-26T04:30:05.841Z,98152.13
2022-12-26T04:33:38.525Z,98158.75
2022-12-26T04:37:14.005Z,98165.28
2022-12-26T04:40:45.726Z,98178.88
2022-12-26T04:44:09.024Z,98179.03
2022-12-26T04:47:15.370Z,98170.81
2022-12-26T04:50:18.949Z,98161.25
2022-12-26T04:53:27.238Z,98164.47
2022-12-26T04:56:33.474Z,98155.03
2022-12-26T04:59:38.892Z,98159.44
2022-12-26T05:03:00.795Z,98150.09
2022-12-26T05:06:22.033Z,98154.31
2022-12-26T05:09:37.484Z,98142.75
2022-12-26T05:12:42.843Z,98135.38
2022-12-26T05:16:04.879Z,98134.78
2022-12-26T05:19:31.461Z,98143.94
2022-12-26T05:22:57.986Z,98140.16
2022-12-26T05:26:24.026Z,98146.59
2022-12-26T05:29:30.297Z,98163.63
2022-12-26T05:32:51.689Z,98172.09
2022-12-26T05:35:57.954Z,98174.56
2022-12-26T05:39:03.668Z,98159.50
2022-12-26T05:42:12.722Z,98151.22
2022-12-26T05:45:18.294Z,98162.91
2022-12-26T05:48:24.634Z,98161.69
2022-12-26T05:51:30.064Z,98157.38
2022-12-26T05:54:36.604Z,98156.22
2022-12-26T05:57:44.739Z,98153.72
2022-12-26T06:00:51.341Z,98156.94
2022-12-26T06:04:03.087Z,98134.19
2022-12-26T06:07:09.487Z,98153.09
2022-12-26T06:10:17.341Z,98154.47
2022-12-26T06:13:26.475Z,98145.09
2022-12-26T06:16:32.903Z,98144.28
2022-12-26T06:19:46.310Z,98134.25
2022-12-26T06:22:52.456Z,98141.75
2022-12-26T06:25:59.562Z,98144.97
2022-12-26T06:29:07.715Z,98146.34
2022-12-26T06:32:13.928Z,98150.22
2022-12-26T06:35:19.612Z,98155.63
2022-12-26T06:38:25.880Z,98140.94
2022-12-26T06:41:31.308Z,98147.47
2022-12-26T06:44:40.369Z,98160.69
2022-12-26T06:47:46.559Z,98167.38
2022-12-26T06:50:54.504Z,98171.34
2022-12-26T06:54:02.535Z,98174.22
2022-12-26T06:57:08.808Z,98184.00
2022-12-26T07:00:19.248Z,98187.91
2022-12-26T07:03:26.510Z,98186.72
2022-12-26T07:06:36.515Z,98165.22
2022-12-26T07:09:42.710Z,98155.94
2022-12-26T07:12:48.100Z,98151.84
2022-12-26T07:15:57.231Z,98146.22
2022-12-26T07:19:02.675Z,98157.56
2022-12-26T07:22:08.919Z,98161.59
2022-12-26T07:25:14.294Z,98179.53
2022-12-26T07:28:20.456Z,98183.75
2022-12-26T07:31:30.447Z,98183.31
2022-12-26T07:34:36.837Z,98178.81
2022-12-26T07:37:42.267Z,98184.06
2022-12-26T07:40:49.113Z,98177.50
2022-12-26T07:43:55.177Z,98183.31
2022-12-26T07:47:05.141Z,98177.66
2022-12-26T07:50:11.835Z,98189.50
2022-12-26T07:53:19.469Z,98196.41
2022-12-26T07:56:26.556Z,98198.97
2022-12-26T07:59:32.790Z,98187.66
2022-12-26T08:02:41.544Z,98193.78
2022-12-26T08:05:49.216Z,98194.44
2022-12-26T08:08:55.173Z,98189.38
2022-12-26T08:12:01.405Z,98196.22
2022-12-26T08:15:07.454Z,98207.34
2022-12-26T08:18:16.518Z,98203.94
2022-12-26T08:21:23.125Z,98208.38
2022-12-26T08:24:29.646Z,98206.19
2022-12-26T08:27:35.016Z,98215.16
2022-12-26T08:30:43.388Z,98200.47
2022-12-26T08:33:52.513Z,98202.22
2022-12-26T08:36:58.737Z,98212.75
2022-12-26T08:40:04.091Z,98216.81
2022-12-26T08:43:32.096Z,98223.06
2022-12-26T08:46:37.104Z,98216.44
2022-12-26T08:49:46.470Z,98213.34
2022-12-26T08:52:52.077Z,98205.47
2022-12-26T08:55:58.976Z,98188.81
2022-12-26T08:59:04.377Z,98209.34
2022-12-26T09:02:14.664Z,98213.66
2022-12-26T09:05:23.252Z,98211.31
2022-12-26T09:08:29.920Z,98211.31
2022-12-26T09:11:36.487Z,97977.34
2022-12-26T09:14:42.715Z,98187.06
2022-12-26T09:17:48.116Z,98196.91
2022-12-26T09:20:57.127Z,98205.22
2022-12-26T09:24:05.833Z,98191.84
2022-12-26T09:27:13.142Z,98203.63
2022-12-26T09:30:19.734Z,98207.38
2022-12-26T09:33:27.945Z,98201.41
2022-12-26T09:36:40.915Z,98209.53
2022-12-26T09:39:47.841Z,98208.78
2022-12-26T09:43:12.977Z,98219.16
2022-12-26T09:46:34.599Z,98220.66
2022-12-26T09:49:53.043Z,98225.72
2022-12-26T09:53:08.408Z,98229.09
2022-12-26T09:57:01.294Z,98232.47
2022-12-26T09:59:57.551Z,98211.69
2022-12-26T10:03:04.325Z,98202.69
2022-12-26T10:06:20.750Z,98197.44
2022-12-26T10:10:04.711Z,98197.06
2022-12-26T10:13:29.827Z,98186.00
2022-12-26T10:16:53.798Z,98192.59
2022-12-26T10:20:20.772Z,98182.94
2022-12-26T10:23:36.608Z,98192.78
2022-12-26T10:26:52.856Z,98178.91
2022-12-26T10:30:07.510Z,98187.34
2022-12-26T10:33:28.807Z,98192.78
2022-12-26T10:36:44.582Z,98197.47
2022-12-26T10:40:00.790Z,98183.03
2022-12-26T10:43:33.288Z,98175.44
2022-12-26T10:47:22.812Z,98165.41
2022-12-26T10:50:32.685Z,98151.09
2022-12-26T10:53:46.982Z,98137.19
2022-12-26T10:56:55.972Z,98143.75
2022-12-26T11:00:16.472Z,98153.00
2022-12-26T11:03:25.096Z,98094.38
2022-12-26T11:06:39.632Z,98166.81
2022-12-26T11:09:48.856Z,98165.03
2022-12-26T11:12:59.050Z,98148.31
2022-12-26T11:16:10.175Z,98147.38
2022-12-26T11:19:31.559Z,98145.31
2022-12-26T11:22:36.971Z,98131.25
2022-12-26T11:25:53.739Z,98136.50
2022-12-26T11:29:13.400Z,98138.03
2022-12-26T11:32:24.255Z,98142.50
2022-12-26T11:35:37.234Z,98133.91
2022-12-26T11:38:58.646Z,98134.63
2022-12-26T11:42:11.933Z,98129.19
2022-12-26T11:45:28.102Z,98131.44
2022-12-26T11:48:36.463Z,98134.63
2022-12-26T11:51:49.823Z,98127.09
2022-12-26T11:54:58.268Z,98131.34
2022-12-26T11:58:21.420Z,98131.88
2022-12-26T12:01:26.797Z,98136.94
2022-12-26T12:04:35.917Z,98116.84
2022-12-26T12:08:25.576Z,98103.13
2022-12-26T12:11:50.269Z,98092.94
2022-12-26T12:15:10.260Z,98101.75
2022-12-26T12:18:31.308Z,98098.81
2022-12-26T12:21:48.437Z,98101.97
2022-12-26T12:25:29.549Z,98108.91
2022-12-26T12:29:14.902Z,98101.97
2022-12-26T12:32:34.708Z,98115.56
2022-12-26T12:36:06.879Z,98104.28
2022-12-26T12:39:28.806Z,98100.53
2022-12-26T12:42:56.924Z,98094.63
2022-12-26T12:46:19.611Z,98114.38
2022-12-26T12:49:53.655Z,98099.25
2022-12-26T12:53:22.046Z,98093.75
2022-12-26T12:56:44.301Z,98114.28
2022-12-26T13:00:13.735Z,98118.41
2022-12-26T13:03:35.767Z,98113.78
2022-12-26T13:06:53.179Z,98111.44
2022-12-26T13:10:05.479Z,98105.34
2022-12-26T13:13:27.854Z,98102.44
2022-12-26T13:16:43.944Z,98099.47
2022-12-26T13:20:03.739Z,98103.03
2022-12-26T13:23:39.253Z,98107.38
2022-12-26T13:26:55.679Z,98060.44
2022-12-26T13:30:04.036Z,98094.09
2022-12-26T13:33:18.004Z,98084.56
2022-12-26T13:36:45.416Z,98086.47
2022-12-26T13:39:56.719Z,98092.53
2022-12-26T13:43:28.419Z,98086.22
2022-12-26T13:47:02.772Z,98099.16
2022-12-26T13:50:55.607Z,98098.03
2022-12-26T13:54:14.733Z,98108.63
2022-12-26T13:57:44.324Z,98098.03
2022-12-26T14:00:53.845Z,98108.44
2022-12-26T14:04:48.643Z,98101.00
2022-12-26T14:08:09.392Z,98089.31
2022-12-26T14:11:43.008Z,98100.38
2022-12-26T14:15:20.757Z,98081.03
2022-12-26T14:18:47.226Z,98076.19
2022-12-26T14:22:12.597Z,98090.25
2022-12-26T14:25:30.128Z,98082.50
2022-12-26T14:29:00.342Z,98091.41
2022-12-26T14:32:31.721Z,98110.22
2022-12-26T14:35:50.797Z,98106.00
2022-12-26T14:39:15.460Z,98108.28
2022-12-26T14:42:41.941Z,98108.91
2022-12-26T14:45:52.689Z,98118.25
2022-12-26T14:49:03.540Z,98108.63
2022-12-26T14:52:44.707Z,98105.47
2022-12-26T14:55:57.850Z,98110.91
2022-12-26T14:59:31.347Z,98107.97
2022-12-26T15:02:38.489Z,98101.88
2022-12-26T15:05:53.302Z,98099.13
2022-12-26T15:09:31.667Z,98083.28
2022-12-26T15:13:35.272Z,98087.56
2022-12-26T15:17:02.956Z,98080.34
2022-12-26T15:20:54.176Z,98092.63
2022-12-26T15:25:18.777Z,98086.97
2022-12-26T15:29:11.439Z,98074.94
2022-12-26T15:32:35.136Z,98077.69
2022-12-26T15:36:02.977Z,98091.44
2022-12-26T15:39:34.403Z,98087.88
2022-12-26T15:43:03.081Z,98086.97
2022-12-26T15:46:25.124Z,98059.59
2022-12-26T15:49:58.459Z,98083.06
2022-12-26T15:53:28.636Z,98098.00
2022-12-26T15:57:13.953Z,98086.97
2022-12-26T16:00:26.984Z,98082.72
2022-12-26T16:03:46.522Z,98082.72
2022-12-26T16:07:25.003Z,98085.44
2022-12-26T16:10:36.090Z,98074.53
2022-12-26T16:13:54.461Z,98084.94
2022-12-26T16:17:21.936Z,98092.09
2022-12-26T16:20:51.918Z,98099.22
2022-12-26T16:23:59.631Z,98109.66
2022-12-26T16:27:12.574Z,98115.28
2022-12-26T16:30:24.754Z,98104.13
2022-12-26T16:33:41.959Z,98064.75
2022-12-26T16:36:54.018Z,98075.00
2022-12-26T16:40:23.691Z,98103.94
2022-12-26T16:43:34.684Z,98117.25
2022-12-26T16:46:42.294Z,98099.72
2022-12-26T16:49:48.392Z,98091.00
2022-12-26T16:53:14.742Z,98075.66
2022-12-26T16:56:36.656Z,98090.75
2022-12-26T16:59:57.760Z,98088.94
2022-12-26T17:03:10.855Z,98038.91
2022-12-26T17:06:27.842Z,98033.69
2022-12-26T17:09:49.837Z,98021.31
2022-12-26T17:13:01.253Z,98030.84
2022-12-26T17:16:13.834Z,98027.31
2022-12-26T17:19:24.085Z,98047.56
2022-12-26T17:22:35.059Z,98004.69
2022-12-26T17:25:50.451Z,98076.06
2022-12-26T17:28:57.097Z,98076.06
2022-12-26T17:32:03.624Z,98095.34
2022-12-26T17:35:18.152Z,98102.34
2022-12-26T17:38:29.547Z,98088.22
2022-12-26T17:41:37.934Z,98092.25
2022-12-26T17:44:47.559Z,98093.63
2022-12-26T17:47:55.754Z,98095.41
2022-12-26T17:51:06.486Z,98109.56
2022-12-26T17:54:12.795Z,98107.13
2022-12-26T17:57:25.927Z,98093.09
2022-12-26T18:00:32.603Z,98082.97
2022-12-26T18:03:39.061Z,98104.69
2022-12-26T18:06:44.703Z,98113.81
2022-12-26T18:09:52.018Z,98113.16
2022-12-26T18:13:01.890Z,98114.00
2022-12-26T18:16:09.803Z,98117.09
2022-12-26T18:19:20.540Z,98109.97
2022-12-26T18:22:27.003Z,98108.44
2022-12-26T18:25:32.897Z,98097.88
2022-12-26T18:28:42.748Z,98101.91
2022-12-26T18:31:48.407Z,98115.28
2022-12-26T18:34:55.479Z,98105.47
2022-12-26T18:38:01.090Z,98101.91
2022-12-26T18:41:08.176Z,98100.03
2022-12-26T18:44:19.383Z,98095.00
2022-12-26T18:47:26.925Z,98096.66
2022-12-26T18:50:34.627Z,98108.84
2022-12-26T18:53:41.073Z,98105.47
2022-12-26T18:56:46.757Z,98120.06
2022-12-26T18:59:56.052Z,98117.63
2022-12-26T19:03:02.244Z,98115.97
2022-12-26T19:06:09.541Z,98113.13
2022-12-26T19:09:17.362Z,98125.22
2022-12-26T19:12:23.853Z,98127.94
2022-12-26T19:15:32.485Z,98128.50
2022-12-26T19:18:39.309Z,98123.34
2022-12-26T19:21:47.625Z,98122.03
2022-12-26T19:24:54.085Z,98131.78
2022-12-26T19:28:01.217Z,98133.44
2022-12-26T19:31:16.783Z,98140.97
2022-12-26T19:34:23.450Z,98139.44
2022-12-26T19:37:29.947Z,98131.28
2022-12-26T19:40:35.579Z,98134.66
2022-12-26T19:43:43.012Z,98150.38
2022-12-26T19:47:11.798Z,98152.75
2022-12-26T19:50:18.513Z,98148.38
2022-12-26T19:53:24.358Z,98160.28
2022-12-26T19:56:32.173Z,98169.28
2022-12-26T19:59:38.188Z,98169.69
2022-12-26T20:02:48.924Z,98161.41
2022-12-26T20:05:54.541Z,98169.63
2022-12-26T20:09:05.855Z,98156.66
2022-12-26T20:12:11.988Z,98176.78
2022-12-26T20:15:18.640Z,98189.84
2022-12-26T20:18:27.052Z,98186.94
2022-12-26T20:21:34.154Z,98183.63
2022-12-26T20:24:39.816Z,98172.69
2022-12-26T20:27:46.490Z,98187.94
2022-12-26T20:31:02.326Z,98138.06
2022-12-26T20:34:12.161Z,98175.19
2022-12-26T20:37:18.973Z,98182.47
2022-12-26T20:40:25.587Z,98192.19
2022-12-26T20:43:32.672Z,98195.00
2022-12-26T20:46:39.748Z,98198.91
2022-12-26T20:49:48.149Z,98191.97
2022-12-26T20:52:54.568Z,98193.66
2022-12-26T20:56:00.684Z,98179.78
2022-12-26T20:59:08.360Z,98177.38
2022-12-26T21:02:15.786Z,98171.19
2022-12-26T21:05:25.153Z,98188.19
2022-12-26T21:08:30.723Z,98190.03
2022-12-26T21:11:42.167Z,98192.47
2022-12-26T21:14:47.816Z,98188.00
2022-12-26T21:17:54.307Z,98195.69
2022-12-26T21:21:10.161Z,98199.22
2022-12-26T21:24:22.627Z,98203.13
2022-12-26T21:27:28.343Z,98214.59
2022-12-26T21:30:34.892Z,98211.91
2022-12-26T21:33:44.768Z,98196.88
2022-12-26T21:37:10.680Z,98201.09
2022-12-26T21:40:16.888Z,98186.81
2022-12-26T21:43:30.478Z,98202.78
2022-12-26T21:46:36.527Z,98194.84
2022-12-26T21:49:43.128Z,98197.38
2022-12-26T21:52:51.572Z,98195.88
2022-12-26T21:55:58.060Z,98186.63
2022-12-26T21:59:19.372Z,98184.78
2022-12-26T22:02:42.601Z,98111.56
2022-12-26T22:05:48.731Z,98178.97
2022-12-26T22:08:57.988Z,98183.09
2022-12-26T22:12:19.279Z,98166.25
2022-12-26T22:15:41.316Z,98168.53
2022-12-26T22:18:50.577Z,98164.03
2022-12-26T22:21:57.835Z,98173.09
2022-12-26T22:25:06.461Z,98170.66
2022-12-26T22:28:17.587Z,98168.78
2022-12-26T22:31:29.090Z,98179.28
2022-12-26T22:34:35.402Z,98161.84
2022-12-26T22:37:40.834Z,98172.16
2022-12-26T22:40:58.065Z,98177.06
2022-12-26T22:44:03.513Z,98177.81
2022-12-26T22:47:09.799Z,98168.09
2022-12-26T22:50:19.014Z,98160.78
2022-12-26T22:53:31.473Z,98156.91
2022-12-26T22:56:39.671Z,98156.53
2022-12-26T23:03:12.175Z,98147.28
2022-12-26T23:06:25.229Z,98142.53
2022-12-26T23:09:31.231Z,98140.50
2022-12-26T23:12:47.186Z,98138.44
2022-12-26T23:16:08.608Z,98149.94
2022-12-26T23:19:39.286Z,98141.97
2022-12-26T23:22:45.365Z,98131.31
2022-12-26T23:25:53.206Z,98132.81
2022-12-26T23:29:17.311Z,98136.19
2022-12-26T23:32:23.726Z,98130.66
2022-12-26T23:35:30.709Z,98123.81
2022-12-26T23:38:37.100Z,98104.72
2022-12-26T23:41:42.543Z,98106.59
2022-12-26T23:44:51.611Z,98106.03
2022-12-26T23:47:56.981Z,98101.91
2022-12-26T23:51:08.438Z,98104.53
2022-12-26T23:54:14.434Z,98100.88
2022-12-26T23:57:20.670Z,98095.81
